createdAt,value
2023-10-03T00:01:38.347Z,12.63
2023-10-03T00:04:11.749Z,11.93
2023-10-03T00:06:47.941Z,11.88
2023-10-03T00:09:18.888Z,12.45
2023-10-03T00:11:56.508Z,11.90
2023-10-03T00:14:24.755Z,10.13
2023-10-03T00:16:58.817Z,11.93
2023-10-03T00:19:36.977Z,11.95
2023-10-03T00:22:05.361Z,11.88
2023-10-03T00:27:17.510Z,13.07
2023-10-03T00:29:47.654Z,13.45
2023-10-03T00:32:15.557Z,16.63
2023-10-03T00:34:45.370Z,15.25
2023-10-03T00:37:17.269Z,13.70
2023-10-03T00:39:51.442Z,12.88
2023-10-03T00:42:22.798Z,14.52
2023-10-03T00:44:53.316Z,13.73
2023-10-03T00:47:25.226Z,13.38
2023-10-03T00:49:53.234Z,14.05
2023-10-03T00:52:21.967Z,12.32
2023-10-03T00:54:52.124Z,14.55
2023-10-03T00:57:22.381Z,17.33
2023-10-03T01:00:00.342Z,15.68
2023-10-03T01:02:34.782Z,11.95
2023-10-03T01:05:05.670Z,12.82
2023-10-03T01:07:40.078Z,13.00
2023-10-03T01:10:14.167Z,13.38
2023-10-03T01:12:48.624Z,12.75
2023-10-03T01:15:32.136Z,13.68
2023-10-03T01:21:05.610Z,14.20
2023-10-03T01:23:57.070Z,12.32
2023-10-03T01:26:28.927Z,13.45
2023-10-03T01:28:57.168Z,14.20
2023-10-03T01:31:24.147Z,11.30
2023-10-03T01:33:56.585Z,12.70
2023-10-03T01:36:29.101Z,14.00
2023-10-03T01:38:57.373Z,13.07
2023-10-03T01:41:25.010Z,12.45
2023-10-03T01:43:54.692Z,13.90
2023-10-03T01:46:23.792Z,13.60
2023-10-03T01:48:54.038Z,14.80
2023-10-03T01:51:22.411Z,13.57
2023-10-03T01:53:58.651Z,15.38
2023-10-03T01:56:32.097Z,13.50
2023-10-03T01:59:02.494Z,15.20
2023-10-03T02:01:39.478Z,16.42
2023-10-03T02:04:37.433Z,13.70
2023-10-03T02:07:09.615Z,14.50
2023-10-03T02:09:40.847Z,13.30
2023-10-03T02:12:09.271Z,13.93
2023-10-03T02:14:44.014Z,12.27
2023-10-03T02:17:13.761Z,14.60
2023-10-03T02:19:44.497Z,13.90
2023-10-03T02:22:23.446Z,13.07
2023-10-03T02:24:51.409Z,13.25
2023-10-03T02:27:18.716Z,12.73
2023-10-03T02:29:47.144Z,13.52
2023-10-03T02:32:16.845Z,14.63
2023-10-03T02:34:44.367Z,12.93
2023-10-03T02:37:14.020Z,16.42
2023-10-03T02:39:46.686Z,14.52
2023-10-03T02:42:26.683Z,15.68
2023-10-03T02:44:56.227Z,16.13
2023-10-03T02:47:24.269Z,14.40
2023-10-03T02:49:59.546Z,15.63
2023-10-03T02:52:27.922Z,15.93
2023-10-03T02:54:57.068Z,13.70
2023-10-03T02:57:25.529Z,15.80
2023-10-03T02:59:53.906Z,17.70
2023-10-03T03:02:22.876Z,16.13
2023-10-03T03:04:55.855Z,14.20
2023-10-03T03:07:29.960Z,14.25
2023-10-03T03:10:00.355Z,15.40
2023-10-03T03:12:31.398Z,17.27
2023-10-03T03:15:00.398Z,13.30
2023-10-03T03:17:36.182Z,14.55
2023-10-03T03:20:24.293Z,13.50
2023-10-03T03:23:07.530Z,19.45
2023-10-03T03:25:45.596Z,15.00
2023-10-03T03:31:32.130Z,14.15
2023-10-03T03:34:09.635Z,15.10
2023-10-03T03:36:42.520Z,17.27
2023-10-03T03:39:15.543Z,14.25
2023-10-03T03:41:45.348Z,13.45
2023-10-03T03:46:55.898Z,18.95
2023-10-03T03:49:24.508Z,14.02
2023-10-03T03:51:53.387Z,13.65
2023-10-03T03:54:21.556Z,13.48
2023-10-03T03:56:50.288Z,15.23
2023-10-03T03:59:17.957Z,15.65
2023-10-03T04:01:46.412Z,15.02
2023-10-03T04:04:16.916Z,15.52
2023-10-03T04:06:46.335Z,14.85
2023-10-03T04:09:25.600Z,14.43
2023-10-03T04:12:00.496Z,16.60
2023-10-03T04:14:30.037Z,14.93
2023-10-03T04:20:33.250Z,17.95
2023-10-03T04:23:09.061Z,17.13
2023-10-03T04:25:39.701Z,19.80
2023-10-03T04:28:13.330Z,16.70
2023-10-03T04:30:42.812Z,16.88
2023-10-03T04:33:15.004Z,15.02
2023-10-03T04:35:49.974Z,15.73
2023-10-03T04:38:18.144Z,14.60
2023-10-03T04:40:48.285Z,17.40
2023-10-03T04:43:16.341Z,17.00
2023-10-03T04:45:46.346Z,18.80
2023-10-03T04:51:31.084Z,18.10
2023-10-03T04:54:00.537Z,18.40
2023-10-03T04:56:38.140Z,20.83
2023-10-03T04:59:07.918Z,16.98
2023-10-03T05:01:37.413Z,20.17
2023-10-03T05:04:59.142Z,21.50
2023-10-03T05:07:39.580Z,18.70
2023-10-03T05:10:54.773Z,18.00
2023-10-03T05:13:26.068Z,20.10
2023-10-03T05:15:56.082Z,17.27
2023-10-03T05:18:44.333Z,21.38
2023-10-03T05:21:12.491Z,17.08
2023-10-03T05:23:47.167Z,19.23
2023-10-03T05:26:33.272Z,14.82
2023-10-03T05:29:07.895Z,19.90
2023-10-03T05:31:49.700Z,21.20
2023-10-03T05:34:17.193Z,21.08
2023-10-03T05:36:45.709Z,23.80
2023-10-03T05:39:13.141Z,19.52
2023-10-03T05:41:42.621Z,20.92
2023-10-03T05:44:17.684Z,21.50
2023-10-03T05:46:46.328Z,21.00
2023-10-03T05:49:13.356Z,15.93
2023-10-03T05:51:41.686Z,19.77
2023-10-03T05:54:11.885Z,20.92
2023-10-03T05:56:47.801Z,19.38
2023-10-03T05:59:25.852Z,16.63
2023-10-03T06:04:39.905Z,18.33
2023-10-03T06:07:14.394Z,19.70
2023-10-03T06:09:44.509Z,23.33
2023-10-03T06:12:15.987Z,17.30
2023-10-03T06:14:51.473Z,17.55
2023-10-03T06:26:14.725Z,17.83
2023-10-03T06:28:43.191Z,17.17
2023-10-03T06:31:11.198Z,22.98
2023-10-03T06:33:45.422Z,14.15
2023-10-03T06:36:48.145Z,21.02
2023-10-03T06:42:11.971Z,20.65
2023-10-03T06:44:46.302Z,13.70
2023-10-03T06:47:16.352Z,15.27
2023-10-03T06:50:14.523Z,18.70
2023-10-03T06:52:43.925Z,15.13
2023-10-03T06:55:41.455Z,13.45
2023-10-03T06:58:14.810Z,17.50
2023-10-03T07:00:55.063Z,12.65
2023-10-03T07:06:53.905Z,15.20
2023-10-03T07:09:59.622Z,14.35
2023-10-03T07:15:31.425Z,15.75
2023-10-03T07:18:55.129Z,14.00
2023-10-03T07:21:32.832Z,16.88
2023-10-03T07:24:08.200Z,12.35
2023-10-03T07:26:41.577Z,16.77
2023-10-03T07:29:08.622Z,13.93
2023-10-03T07:31:37.346Z,13.70
2023-10-03T07:34:06.640Z,18.92
2023-10-03T07:36:33.655Z,13.15
2023-10-03T07:39:01.191Z,12.60
2023-10-03T07:41:31.436Z,16.48
2023-10-03T07:44:06.509Z,12.80
2023-10-03T07:46:36.139Z,14.23
2023-10-03T07:49:10.194Z,15.70
2023-10-03T07:51:43.029Z,12.45
2023-10-03T07:54:20.562Z,10.60
2023-10-03T07:56:51.218Z,12.10
2023-10-03T07:59:22.602Z,12.95
2023-10-03T08:02:00.148Z,17.90
2023-10-03T08:04:33.459Z,13.38
2023-10-03T08:07:11.537Z,13.75
2023-10-03T08:09:40.522Z,13.65
2023-10-03T08:12:17.847Z,14.90
2023-10-03T08:14:44.967Z,13.93
2023-10-03T08:17:12.105Z,14.00
2023-10-03T08:19:47.192Z,11.52
2023-10-03T08:22:20.784Z,12.82
2023-10-03T08:24:48.487Z,12.52
2023-10-03T08:27:23.971Z,13.88
2023-10-03T08:29:52.738Z,16.55
2023-10-03T08:32:29.751Z,13.57
2023-10-03T08:34:58.379Z,12.98
2023-10-03T08:37:25.947Z,15.20
2023-10-03T08:39:54.337Z,14.52
2023-10-03T08:42:49.219Z,14.15
2023-10-03T08:45:18.748Z,9.80
2023-10-03T08:48:01.251Z,10.55
2023-10-03T08:50:37.999Z,12.32
2023-10-03T08:53:28.417Z,9.45
2023-10-03T08:56:09.132Z,16.02
2023-10-03T08:58:40.450Z,10.48
2023-10-03T09:01:08.837Z,12.25
2023-10-03T09:03:53.630Z,11.60
2023-10-03T09:09:12.286Z,12.07
2023-10-03T09:11:46.813Z,11.77
2023-10-03T09:14:25.222Z,10.98
2023-10-03T09:16:59.453Z,13.70
2023-10-03T09:19:58.620Z,12.75
2023-10-03T09:22:40.269Z,12.82
2023-10-03T09:25:27.414Z,12.95
2023-10-03T09:28:52.465Z,15.45
2023-10-03T09:31:42.992Z,17.83
2023-10-03T09:34:17.004Z,13.13
2023-10-03T09:36:49.288Z,11.38
2023-10-03T09:39:50.377Z,12.95
2023-10-03T09:43:12.986Z,13.05
2023-10-03T09:45:50.266Z,12.07
2023-10-03T09:54:46.283Z,14.27
2023-10-03T09:57:19.290Z,14.80
2023-10-03T10:00:01.964Z,14.88
2023-10-03T10:02:32.696Z,14.02
2023-10-03T10:05:09.171Z,16.45
2023-10-03T10:07:44.605Z,16.73
2023-10-03T10:10:15.177Z,11.77
2023-10-03T10:13:15.024Z,13.45
2023-10-03T10:16:13.548Z,15.68
2023-10-03T10:18:46.894Z,12.05
2023-10-03T10:21:53.652Z,15.20
2023-10-03T10:24:21.939Z,16.52
2023-10-03T10:26:50.795Z,14.40
2023-10-03T10:29:29.973Z,12.48
2023-10-03T10:32:15.546Z,12.25
2023-10-03T10:34:47.932Z,13.10
2023-10-03T10:37:19.578Z,13.85
2023-10-03T10:40:11.701Z,13.25
2023-10-03T10:43:06.534Z,14.77
2023-10-03T10:45:47.372Z,13.43
2023-10-03T10:48:17.456Z,15.65
2023-10-03T10:51:05.968Z,13.40
2023-10-03T10:53:48.369Z,12.27
2023-10-03T10:56:17.929Z,12.70
2023-10-03T10:58:53.081Z,15.48
2023-10-03T11:01:22.098Z,12.48
2023-10-03T11:03:52.013Z,12.75
2023-10-03T11:06:30.601Z,18.13
2023-10-03T11:09:01.062Z,13.20
2023-10-03T11:11:36.673Z,16.08
2023-10-03T11:14:14.914Z,11.48
2023-10-03T11:16:47.632Z,13.48
2023-10-03T11:19:16.927Z,14.27
2023-10-03T11:21:46.868Z,14.10
2023-10-03T11:24:26.173Z,11.40
2023-10-03T11:27:09.634Z,12.48
2023-10-03T11:29:48.646Z,11.13
2023-10-03T11:35:57.628Z,12.35
2023-10-03T11:38:45.644Z,15.55
2023-10-03T11:41:29.669Z,11.38
2023-10-03T11:43:57.931Z,14.90
2023-10-03T11:46:24.937Z,16.70
2023-10-03T11:49:02.873Z,12.75
2023-10-03T11:51:34.599Z,13.60
2023-10-03T11:54:31.029Z,12.52
2023-10-03T11:57:23.336Z,14.85
2023-10-03T11:59:58.931Z,12.02
2023-10-03T12:02:33.651Z,13.18
2023-10-03T12:05:06.581Z,11.32
2023-10-03T12:07:38.984Z,10.77
2023-10-03T12:10:15.883Z,10.70
2023-10-03T12:15:30.119Z,13.00
2023-10-03T12:17:57.753Z,9.93
2023-10-03T12:20:38.825Z,10.75
2023-10-03T12:23:29.076Z,14.18
2023-10-03T12:28:40.625Z,13.50
2023-10-03T12:31:10.009Z,10.10
2023-10-03T12:33:58.712Z,12.35
2023-10-03T12:36:38.612Z,12.98
2023-10-03T12:39:28.867Z,11.98
2023-10-03T12:42:08.673Z,14.23
2023-10-03T12:44:41.037Z,10.27
2023-10-03T12:47:36.115Z,10.88
2023-10-03T12:50:05.489Z,12.38
2023-10-03T12:52:35.645Z,9.50
2023-10-03T12:55:05.636Z,10.90
2023-10-03T12:57:34.926Z,9.60
2023-10-03T13:00:09.106Z,12.90
2023-10-03T13:02:52.272Z,9.80
2023-10-03T13:05:38.631Z,9.95
2023-10-03T13:08:10.397Z,9.50
2023-10-03T13:10:49.731Z,12.02
2023-10-03T13:13:18.464Z,12.48
2023-10-03T13:15:49.456Z,9.65
2023-10-03T13:18:18.536Z,11.00
2023-10-03T13:20:50.641Z,9.13
2023-10-03T13:23:21.506Z,12.00
2023-10-03T13:25:51.930Z,14.55
2023-10-03T13:28:20.401Z,10.15
2023-10-03T13:30:49.669Z,10.70
2023-10-03T13:33:16.725Z,12.85
2023-10-03T13:35:46.139Z,10.68
2023-10-03T13:38:17.821Z,13.27
2023-10-03T13:40:46.747Z,12.82
2023-10-03T13:43:20.032Z,11.57
2023-10-03T13:45:57.601Z,13.57
2023-10-03T13:48:26.382Z,12.80
2023-10-03T13:50:54.290Z,12.15
2023-10-03T13:53:22.673Z,9.75
2023-10-03T13:55:52.334Z,9.32
2023-10-03T13:58:19.295Z,12.65
2023-10-03T14:00:46.166Z,13.00
2023-10-03T14:03:20.543Z,13.60
2023-10-03T14:05:48.431Z,11.90
2023-10-03T14:08:23.514Z,12.18
2023-10-03T14:10:56.441Z,11.48
2023-10-03T14:13:23.723Z,15.55
2023-10-03T14:15:50.801Z,9.13
2023-10-03T14:18:18.219Z,19.10
2023-10-03T14:20:45.175Z,14.15
2023-10-03T14:23:12.689Z,12.07
2023-10-03T14:25:41.576Z,10.15
2023-10-03T14:28:10.862Z,11.70
2023-10-03T14:30:40.025Z,13.07
2023-10-03T14:33:12.267Z,12.48
2023-10-03T14:36:05.619Z,13.00
2023-10-03T14:38:51.499Z,14.43
2023-10-03T14:41:27.837Z,11.40
2023-10-03T14:43:55.099Z,12.07
2023-10-03T14:46:49.073Z,12.18
2023-10-03T14:49:18.506Z,12.07
2023-10-03T14:51:48.591Z,13.15
2023-10-03T14:54:20.571Z,12.13
2023-10-03T14:56:49.029Z,14.27
2023-10-03T14:59:19.109Z,13.52
2023-10-03T15:01:51.478Z,13.00
2023-10-03T15:04:19.141Z,11.75
2023-10-03T15:06:48.942Z,14.80
2023-10-03T15:09:16.664Z,14.02
2023-10-03T15:11:49.935Z,12.80
2023-10-03T15:15:01.068Z,14.35
2023-10-03T15:17:34.415Z,14.75
2023-10-03T15:20:01.691Z,13.95
2023-10-03T15:22:33.173Z,15.57
2023-10-03T15:25:01.107Z,13.27
2023-10-03T15:27:28.022Z,13.98
2023-10-03T15:29:56.715Z,11.60
2023-10-03T15:32:35.499Z,13.38
2023-10-03T15:35:15.631Z,19.88
2023-10-03T15:37:42.609Z,14.52
2023-10-03T15:40:14.065Z,12.13
2023-10-03T15:42:48.733Z,13.18
2023-10-03T15:45:20.021Z,11.43
2023-10-03T15:47:58.855Z,14.68
2023-10-03T15:50:26.071Z,14.93
2023-10-03T15:52:58.020Z,12.10
2023-10-03T15:55:29.584Z,14.40
2023-10-03T15:57:59.036Z,11.65
2023-10-03T16:00:38.241Z,11.45
2023-10-03T16:06:38.780Z,11.27
2023-10-03T16:12:21.287Z,11.85
2023-10-03T16:14:52.619Z,12.27
2023-10-03T16:17:21.130Z,11.88
2023-10-03T16:19:48.196Z,17.27
2023-10-03T16:22:18.123Z,15.88
2023-10-03T16:24:45.715Z,11.40
2023-10-03T16:27:13.881Z,12.82
2023-10-03T16:29:46.168Z,14.75
2023-10-03T16:32:15.008Z,13.07
2023-10-03T16:34:43.241Z,13.07
2023-10-03T16:37:11.552Z,14.20
2023-10-03T16:39:51.037Z,12.23
2023-10-03T16:42:22.130Z,13.45
2023-10-03T16:44:49.937Z,12.00
2023-10-03T16:47:17.469Z,14.63
2023-10-03T16:49:45.496Z,12.38
2023-10-03T16:52:12.469Z,15.23
2023-10-03T16:54:39.594Z,16.92
2023-10-03T16:57:07.858Z,16.15
2023-10-03T16:59:34.892Z,11.52
2023-10-03T17:02:02.093Z,12.25
2023-10-03T17:05:01.446Z,12.85
2023-10-03T17:07:28.486Z,11.85
2023-10-03T17:09:56.973Z,15.05
2023-10-03T17:12:26.345Z,13.85
2023-10-03T17:14:53.750Z,12.77
2023-10-03T17:17:23.407Z,14.65
2023-10-03T17:19:50.438Z,14.60
2023-10-03T17:22:18.135Z,13.68
2023-10-03T17:24:45.113Z,13.48
2023-10-03T17:27:13.702Z,13.02
2023-10-03T17:29:40.916Z,16.08
2023-10-03T17:32:09.440Z,16.63
2023-10-03T17:34:36.840Z,16.75
2023-10-03T17:37:06.035Z,12.82
2023-10-03T17:39:36.655Z,19.33
2023-10-03T17:45:01.833Z,19.70
2023-10-03T17:47:30.449Z,18.25
2023-10-03T17:50:08.797Z,15.82
2023-10-03T17:52:43.232Z,16.17
2023-10-03T17:55:15.932Z,14.27
2023-10-03T17:57:46.685Z,12.15
2023-10-03T18:00:17.281Z,14.55
2023-10-03T18:02:53.783Z,18.88
2023-10-03T18:05:29.382Z,14.43
2023-10-03T18:07:56.350Z,13.52
2023-10-03T18:10:27.038Z,15.57
2023-10-03T18:12:59.970Z,16.13
2023-10-03T18:15:28.000Z,16.70
2023-10-03T18:17:58.862Z,17.42
2023-10-03T18:20:29.343Z,15.35
2023-10-03T18:22:57.453Z,15.98
2023-10-03T18:25:25.557Z,16.10
2023-10-03T18:27:53.918Z,19.00
2023-10-03T18:30:23.665Z,20.98
2023-10-03T18:32:52.345Z,17.42
2023-10-03T18:35:20.189Z,19.85
2023-10-03T18:37:49.601Z,18.55
2023-10-03T18:40:18.867Z,19.75
2023-10-03T18:42:49.905Z,17.65
2023-10-03T18:45:17.822Z,20.00
2023-10-03T18:47:48.545Z,20.27
2023-10-03T18:50:16.066Z,17.58
2023-10-03T18:52:43.549Z,19.15
2023-10-03T18:55:14.660Z,20.95
2023-10-03T18:57:41.695Z,19.83
2023-10-03T19:00:13.711Z,23.05
2023-10-03T19:02:40.839Z,20.38
2023-10-03T19:05:09.975Z,25.25
2023-10-03T19:07:39.941Z,19.38
2023-10-03T19:10:17.161Z,22.48
2023-10-03T19:12:44.631Z,18.40
2023-10-03T19:15:12.649Z,20.15
2023-10-03T19:17:40.380Z,25.98
2023-10-03T19:20:10.009Z,18.95
2023-10-03T19:22:37.258Z,21.30
2023-10-03T19:25:07.213Z,19.63
2023-10-03T19:27:36.709Z,22.95
2023-10-03T19:30:09.579Z,21.17
2023-10-03T19:32:37.770Z,17.38
2023-10-03T19:35:05.599Z,18.40
2023-10-03T19:37:32.779Z,22.98
2023-10-03T19:40:02.212Z,19.80
2023-10-03T19:42:31.735Z,20.65
2023-10-03T19:45:02.728Z,19.23
2023-10-03T19:47:40.234Z,20.25
2023-10-03T19:50:15.986Z,16.65
2023-10-03T19:52:47.247Z,20.40
2023-10-03T19:55:17.157Z,26.80
2023-10-03T19:57:45.628Z,18.27
2023-10-03T20:00:15.975Z,19.38
2023-10-03T20:02:45.888Z,20.33
2023-10-03T20:05:14.028Z,21.77
2023-10-03T20:07:44.025Z,24.17
2023-10-03T20:10:16.714Z,17.73
2023-10-03T20:12:49.355Z,16.02
2023-10-03T20:15:18.200Z,21.42
2023-10-03T20:17:45.174Z,20.17
2023-10-03T20:20:12.449Z,18.20
2023-10-03T20:22:43.398Z,20.90
2023-10-03T20:25:11.568Z,20.98
2023-10-03T20:27:38.941Z,17.80
2023-10-03T20:30:07.375Z,22.60
2023-10-03T20:32:34.724Z,18.65
2023-10-03T20:35:02.010Z,16.02
2023-10-03T20:37:29.058Z,17.60
2023-10-03T20:39:59.688Z,18.58
2023-10-03T20:42:31.387Z,21.52
2023-10-03T20:44:58.747Z,16.13
2023-10-03T20:47:26.831Z,17.70
2023-10-03T20:49:54.317Z,20.92
2023-10-03T20:52:21.776Z,18.63
2023-10-03T20:54:48.781Z,18.98
2023-10-03T20:57:16.020Z,17.08
2023-10-03T20:59:42.973Z,18.50
2023-10-03T21:02:10.399Z,19.15
2023-10-03T21:04:38.374Z,17.52
2023-10-03T21:07:06.534Z,15.65
2023-10-03T21:09:34.847Z,20.42
2023-10-03T21:12:05.045Z,20.52
2023-10-03T21:14:32.482Z,16.30
2023-10-03T21:16:59.568Z,18.98
2023-10-03T21:19:30.568Z,18.33
2023-10-03T21:21:59.759Z,17.92
2023-10-03T21:24:27.412Z,18.30
2023-10-03T21:26:56.074Z,19.85
2023-10-03T21:29:26.013Z,15.35
2023-10-03T21:31:54.253Z,19.48
2023-10-03T21:34:22.520Z,17.10
2023-10-03T21:36:55.749Z,18.38
2023-10-03T21:39:23.432Z,17.20
2023-10-03T21:41:52.173Z,16.75
2023-10-03T21:44:20.290Z,19.35
2023-10-03T21:46:47.236Z,18.30
2023-10-03T21:49:15.260Z,17.83
2023-10-03T21:51:47.397Z,18.90
2023-10-03T21:54:15.564Z,25.77
2023-10-03T21:56:43.414Z,24.50
2023-10-03T21:59:10.414Z,44.13
2023-10-03T22:01:42.580Z,31.58
2023-10-03T22:04:10.955Z,39.45
2023-10-03T22:06:39.454Z,16.60
2023-10-03T22:09:14.039Z,14.10
2023-10-03T22:11:41.110Z,12.60
2023-10-03T22:14:15.056Z,13.13
2023-10-03T22:16:47.104Z,9.23
2023-10-03T22:22:29.533Z,7.40
2023-10-03T22:24:57.810Z,8.60
2023-10-03T22:27:27.110Z,11.48
2023-10-03T22:29:54.360Z,10.90
2023-10-03T22:32:21.331Z,8.15
2023-10-03T22:34:48.355Z,9.38
2023-10-03T22:37:15.554Z,10.75
2023-10-03T22:39:42.468Z,8.68
2023-10-03T22:42:09.778Z,8.52
2023-10-03T22:44:39.466Z,10.55
2023-10-03T22:47:07.774Z,10.38
2023-10-03T22:49:35.393Z,8.82
2023-10-03T22:52:02.605Z,11.13
2023-10-03T22:54:30.392Z,9.23
2023-10-03T22:57:01.193Z,13.25
2023-10-03T22:59:28.375Z,12.40
2023-10-03T23:01:57.134Z,13.63
2023-10-03T23:04:24.495Z,10.60
2023-10-03T23:06:51.531Z,13.90
2023-10-03T23:09:20.599Z,10.50
2023-10-03T23:11:50.598Z,10.88
2023-10-03T23:14:17.589Z,12.48
2023-10-03T23:16:44.501Z,12.27
2023-10-03T23:19:12.047Z,11.18
2023-10-03T23:21:43.008Z,13.27
2023-10-03T23:24:11.487Z,12.38
2023-10-03T23:26:41.497Z,11.02
2023-10-03T23:29:11.004Z,12.77
2023-10-03T23:31:38.690Z,11.90
2023-10-03T23:34:08.757Z,11.63
2023-10-03T23:36:37.649Z,10.88
2023-10-03T23:39:07.810Z,13.05
2023-10-03T23:41:37.405Z,11.02
2023-10-03T23:44:07.897Z,10.90
2023-10-03T23:46:35.153Z,12.30
2023-10-03T23:49:06.133Z,9.82
2023-10-03T23:51:33.394Z,12.27
2023-10-03T23:54:00.465Z,10.25
2023-10-03T23:56:27.919Z,10.70
2023-10-03T23:58:58.568Z,11.65
